Latest Weather Observations for Maatsuyker Island

IDT60801

Issued at 5:02 pm EDT Monday 20 February 2017 (issued every 30 minutes, with the page automatically refreshed every 10 minutes)

About weather observations | Map of weather stations | Latest weather observations for TAS | Other Formats
Station Details ID: 094041 Name: MAATSUYKER ISLAND LIGHTHOUSE Lat: -43.66 Lon: 146.27 Height: 146.5 m
Data from the previous 72 hours. | See also: Recent months at Maatsuyker Island
Date/Time
EDT
Temp
°C
App
Temp
°C
Dew
Point
°C
Rel
Hum
%
Delta-T
°C
Wind Press
QNH
hPa
Press
MSL
hPa
Rain since
9am
mm
Dir  Spd
km/h
Gust
km/h
Spd
kts
Gust
kts
20/05:00pm 14.0 10.3 11.4 84 1.4 E 22 37 12 20 1010.0 - 1.6
20/04:30pm 14.1 13.0 11.9 86 1.2 N 9 13 5 7 1010.0 - 1.6
20/04:00pm 13.7 12.6 12.0 89 0.9 N 9 13 5 7 1010.0 - 1.6
20/03:30pm 14.8 14.1 13.2 90 0.9 N 9 20 5 11 1009.7 - 1.0
20/03:00pm 15.0 14.2 11.7 80 1.8 N 7 11 4 6 1009.6 1009.5 0.2
20/02:30pm 14.4 13.0 12.2 87 1.2 E 11 26 6 14 1009.6 - 0.2
20/02:00pm 14.9 14.4 12.2 84 1.5 N 6 9 3 5 1009.6 - 0.2
20/01:30pm 16.4 15.7 11.4 72 2.7 N 6 7 3 4 1009.5 - 0.0
20/01:00pm 14.8 13.9 10.5 75 2.3 NW 6 9 3 5 1009.6 - 0.0
20/12:30pm 14.8 14.0 11.1 78 2.0 NNW 6 13 3 7 1009.8 - 0.0
20/12:00pm 14.9 12.2 10.4 74 2.4 S 15 20 8 11 1009.8 1009.7 0.0
20/11:30am 14.8 13.1 10.0 73 2.5 SSW 9 15 5 8 1009.8 - 0.0
20/11:00am 14.1 12.0 9.7 75 2.3 WSW 11 13 6 7 1009.8 - 0.0
20/10:30am 13.1 12.1 10.2 82 1.5 NW 6 11 3 6 1009.8 - 0.0
20/10:00am 12.3 10.6 10.0 86 1.2 NNE 9 11 5 6 1009.5 - 0.0
20/09:30am 11.9 9.8 9.8 87 1.1 N 11 13 6 7 1009.0 - 0.0
20/09:00am 11.2 9.1 9.6 90 0.8 N 11 13 6 7 1009.0 1009.0 0.2
20/08:30am 10.7 8.6 9.7 93 0.5 N 11 13 6 7 1008.9 - 0.2
20/08:00am 10.6 7.6 9.4 92 0.6 N 15 17 8 9 1008.7 - 0.2
20/07:30am 10.4 8.5 9.2 92 0.6 N 9 13 5 7 1008.4 - 0.2
20/07:00am 10.4 8.5 9.0 91 0.7 N 9 11 5 6 1008.1 - 0.2
20/06:30am 10.5 8.2 9.1 91 0.7 NNE 11 13 6 7 1007.9 - 0.2
20/06:00am 10.5 8.6 9.1 91 0.7 NNE 9 11 5 6 1007.6 1007.5 0.2
20/05:30am 10.5 8.9 8.7 89 0.9 NNE 7 9 4 5 1007.3 - 0.2
20/05:00am 10.3 9.3 7.2 81 1.5 NNE 2 7 1 4 1007.1 - 0.2
20/04:30am 10.1 9.1 7.4 83 1.3 NNE 2 6 1 3 1006.9 - 0.2
20/04:00am 10.9 8.9 7.2 78 1.8 NE 7 13 4 7 1007.1 - 0.2
20/03:30am 11.0 8.7 7.3 78 1.8 NE 9 13 5 7 1007.0 - 0.2
20/03:00am 11.0 9.5 8.6 85 1.2 NNW 6 13 3 7 1006.8 1006.7 0.2
20/02:30am 11.0 9.0 8.8 86 1.1 ENE 9 13 5 7 1006.9 - 0.2
20/02:00am 11.5 8.9 9.3 86 1.1 ENE 13 17 7 9 1006.8 - 0.2
20/01:30am 11.4 10.0 8.8 84 1.3 NNE 6 11 3 6 1007.0 - 0.2
20/01:00am 11.2 10.0 8.2 82 1.5 NNW 4 9 2 5 1006.9 - 0.2
20/12:30am 11.2 9.9 7.7 79 1.7 NW 4 9 2 5 1006.9 - 0.2
20/12:00am 11.6 10.0 8.6 82 1.5 WNW 7 11 4 6 1007.0 1006.9 0.2
 
Date/Time
EDT
Temp
°C
App
Temp
°C
Dew
Point
°C
Rel
Hum
%
Delta-T
°C
Wind Press
QNH
hPa
Press
MSL
hPa
Rain since
9am
mm
Dir  Spd
km/h
Gust
km/h
Spd
kts
Gust
kts
19/11:30pm 11.8 10.1 8.2 78 1.8 N 7 15 4 8 1006.9 - 0.2
19/11:00pm 11.4 10.2 7.9 79 1.7 NW 4 7 2 4 1007.0 - 0.2
19/10:30pm 11.6 10.1 8.4 81 1.6 NW 6 9 3 5 1007.1 - 0.2
19/10:00pm 11.8 10.1 8.4 80 1.7 N 7 13 4 7 1007.0 - 0.2
19/09:30pm 12.1 10.6 8.3 77 1.9 NNW 6 9 3 5 1006.8 - 0.2
19/09:00pm 12.1 10.6 8.3 77 1.9 NW 6 11 3 6 1006.6 1006.5 0.2
19/08:30pm 12.2 11.1 8.4 77 1.9 NNW 4 11 2 6 1006.2 - 0.2
19/08:00pm 12.7 11.0 8.3 74 2.2 N 7 11 4 6 1005.6 - 0.2
19/07:30pm 14.1 12.8 7.7 65 3.2 NNW 4 7 2 4 1005.3 - 0.2
19/07:00pm 14.3 13.5 8.2 67 3.1 NNW 2 9 1 5 1005.3 - 0.2
19/06:30pm 15.0 13.5 8.6 65 3.3 N 6 13 3 7 1005.0 - 0.2
19/06:00pm 15.1 13.9 9.6 69 2.9 N 6 17 3 9 1004.8 1004.7 0.2
19/05:30pm 15.0 12.7 9.0 67 3.1 ENE 11 17 6 9 1004.5 - 0.2
19/05:00pm 15.1 9.8 8.4 64 3.4 SSE 26 32 14 17 1004.3 - 0.2
19/04:30pm 14.8 10.0 8.8 67 3.1 SSE 24 28 13 15 1004.5 - 0.2
19/04:00pm 14.5 10.0 8.4 67 3.1 S 22 26 12 14 1004.6 - 0.2
19/03:30pm 13.8 8.7 7.8 67 3.0 S 24 30 13 16 1004.7 - 0.2
19/03:00pm 13.5 8.0 7.7 68 2.9 S 26 32 14 17 1004.7 1004.6 0.2
19/02:30pm 14.0 9.4 8.0 67 3.0 SSE 22 28 12 15 1004.7 - 0.2
19/02:00pm 13.1 9.2 7.2 67 2.9 S 17 20 9 11 1004.7 - 0.2
19/01:30pm 12.1 7.9 7.4 73 2.3 S 19 26 10 14 1004.8 - 0.2
19/01:00pm 12.1 10.0 6.5 68 2.7 NNE 7 11 4 6 1004.8 - 0.2
19/12:30pm 11.9 9.7 7.9 76 2.0 NNE 9 11 5 6 1004.8 - 0.2
19/12:00pm 11.2 9.8 5.6 68 2.6 SSW 2 11 1 6 1004.8 1004.7 0.0
19/11:30am 11.2 10.0 6.4 72 2.3 NNW 2 7 1 4 1004.8 - 0.0
19/11:00am 11.0 8.4 6.1 72 2.3 NNW 9 13 5 7 1004.5 - 0.0
19/10:30am 10.5 7.7 5.3 70 2.4 N 9 13 5 7 1004.3 - 0.0
19/10:00am 10.9 8.9 6.3 73 2.2 NW 6 11 3 6 1004.1 - 0.0
19/09:30am 10.7 7.7 6.0 73 2.2 NW 11 15 6 8 1003.9 - 0.0
19/09:00am 10.4 7.8 5.9 73 2.1 N 9 13 5 7 1003.6 1003.5 1.4
19/08:30am 9.9 6.7 5.3 73 2.1 NNW 11 17 6 9 1003.4 - 1.4
19/08:00am 9.8 6.7 5.5 74 2.0 NNW 11 15 6 8 1002.9 - 1.4
19/07:30am 9.5 6.4 5.4 75 1.9 N 11 17 6 9 1002.8 - 1.4
19/07:00am 9.3 5.3 4.9 74 2.0 N 15 20 8 11 1002.4 - 1.4
19/06:30am 9.1 5.5 5.2 76 1.8 N 13 20 7 11 1002.0 - 1.4
19/06:00am 9.1 5.2 5.4 77 1.7 N 15 20 8 11 1001.5 1001.4 1.4
19/05:30am 9.0 5.6 5.8 80 1.5 N 13 24 7 13 1001.3 - 1.4
19/05:00am 9.0 4.8 5.5 79 1.6 N 17 22 9 12 1001.2 - 1.4
19/04:30am 9.2 5.0 5.7 79 1.6 N 17 26 9 14 1001.1 - 1.4
19/04:00am 9.4 5.3 6.2 80 1.5 N 17 26 9 14 1001.3 - 1.4
19/03:30am 9.2 4.6 6.7 84 1.2 N 20 26 11 14 1001.4 - 1.4
19/03:00am 9.2 3.9 6.9 85 1.1 N 24 35 13 19 1001.6 1001.5 1.4
19/02:30am 9.0 3.2 6.2 82 1.3 N 26 39 14 21 1001.6 - 1.4
19/02:00am 9.8 4.8 6.4 79 1.6 N 22 33 12 18 1001.9 - 1.0
19/01:30am 9.8 2.8 6.2 78 1.7 N 32 44 17 24 1001.9 - 1.0
19/01:00am 10.3 3.7 6.0 75 2.0 N 30 43 16 23 1002.3 - 1.0
19/12:30am 10.3 5.3 6.5 77 1.8 N 22 35 12 19 1002.3 - 1.0
19/12:00am 10.0 4.1 5.9 75 1.9 N 26 39 14 21 1002.5 1002.3 1.0
 
Date/Time
EDT
Temp
°C
App
Temp
°C
Dew
Point
°C
Rel
Hum
%
Delta-T
°C
Wind Press
QNH
hPa
Press
MSL
hPa
Rain since
9am
mm
Dir  Spd
km/h
Gust
km/h
Spd
kts
Gust
kts
18/11:30pm 10.2 3.9 5.9 74 2.0 N 28 39 15 21 1002.7 - 1.0
18/11:00pm 10.2 4.4 6.4 77 1.8 N 26 35 14 19 1003.3 - 1.0
18/10:30pm 10.1 3.2 6.5 78 1.7 N 32 48 17 26 1003.2 - 1.0
18/10:02pm 9.8 3.6 6.2 78 1.7 N 28 46 15 25 1003.3 - 1.0
18/10:00pm 9.8 3.2 6.2 78 1.7 N 30 44 16 24 1003.3 - 1.0
18/09:30pm 9.9 2.9 7.0 82 1.4 NNW 33 44 18 24 1003.3 - 1.0
18/09:00pm 9.7 3.0 7.2 84 1.2 NNW 32 44 17 24 1003.6 1003.5 1.0
18/08:40pm 10.9 4.6 7.2 78 1.8 NNW 30 56 16 30 1003.3 - 0.4
18/08:30pm 11.3 4.7 6.0 70 2.5 N 30 41 16 22 1003.3 - 0.4
18/08:00pm 11.4 4.2 5.9 69 2.6 NNW 33 50 18 27 1003.3 - 0.4
18/07:46pm 11.8 4.2 5.9 67 2.8 NNW 35 54 19 29 1003.0 - 0.4
18/07:30pm 11.7 3.7 5.8 67 2.8 NNW 37 50 20 27 1003.1 - 0.4
18/07:09pm 11.8 2.9 5.1 63 3.1 NNW 41 59 22 32 1002.9 - 0.4
18/07:00pm 11.6 3.2 5.6 66 2.8 NNW 39 54 21 29 1003.0 - 0.4
18/06:30pm 11.1 1.9 6.3 72 2.3 NNW 44 57 24 31 1003.1 - 0.4
18/06:13pm 11.6 2.4 5.4 65 2.9 NNW 43 61 23 33 1002.6 - 0.4
18/06:00pm 12.4 3.1 5.1 61 3.4 NNW 43 56 23 30 1002.9 1002.7 0.4
18/05:30pm 12.5 1.1 4.8 59 3.6 NNW 54 65 29 35 1002.8 - 0.4
18/05:00pm 12.1 1.2 3.7 56 3.8 NNW 50 63 27 34 1003.0 - 0.4
18/04:37pm 11.4 1.8 6.1 70 2.5 NNW 46 65 25 35 1003.3 - 0.4
18/04:30pm 12.5 2.1 4.2 57 3.8 NNW 48 61 26 33 1003.4 - 0.4
18/04:20pm 12.3 0.6 3.1 53 4.1 NNW 54 63 29 34 1003.1 - 0.4
18/04:07pm 11.9 -3.0 4.5 60 3.4 NNW 72 91 39 49 1002.9 - 0.4
18/04:00pm 11.5 -3.9 5.8 68 2.7 NW 76 83 41 45 1002.5 - 0.4
18/03:59pm 11.2 -4.2 5.7 69 2.6 NW 76 83 41 45 1002.8 - 0.4
18/03:57pm 11.4 -0.4 5.9 69 2.6 NNW 57 78 31 42 1003.2 - 0.4
18/03:30pm 11.6 -0.7 3.0 55 3.8 NNW 57 70 31 38 1003.6 - 0.4
18/03:05pm 11.1 0.6 5.8 70 2.5 NNW 50 69 27 37 1004.0 - 0.4
18/03:00pm 11.1 0.0 6.3 72 2.3 NNW 54 69 29 37 1003.6 1003.5 0.4
18/02:46pm 10.1 -1.6 5.1 71 2.3 NW 56 67 30 36 1003.9 - 0.2
18/02:33pm 11.0 -4.4 5.7 70 2.5 NW 76 82 41 44 1003.6 - 0.2
18/02:30pm 11.7 -0.1 5.8 67 2.8 NNW 57 78 31 42 1003.8 - 0.2
18/02:00pm 12.5 0.7 5.0 60 3.5 NNW 56 69 30 37 1003.8 - 0.2
18/01:30pm 11.8 1.0 6.1 68 2.7 NNW 52 69 28 37 1004.0 - 0.2
18/01:25pm 10.5 -1.1 5.6 71 2.3 NNW 56 74 30 40 1003.9 - 0.2
18/01:00pm 12.2 0.6 3.8 56 3.8 NNW 54 65 29 35 1003.8 - 0.2
18/12:30pm 11.8 0.1 3.6 57 3.7 NNW 54 63 29 34 1004.1 - 0.2
18/12:00pm 12.0 0.7 3.3 55 3.9 NNW 52 61 28 33 1003.9 - 0.2
18/11:30am 11.7 1.4 4.8 62 3.2 NNW 48 57 26 31 1004.5 - 0.2
18/11:00am 11.4 1.4 4.4 62 3.2 NNW 46 54 25 29 1004.6 - 0.2
18/10:45am 10.7 3.3 6.7 76 1.9 NW 35 65 19 35 1004.5 - 0.0
18/10:30am 10.6 3.7 6.4 75 2.0 NNW 32 37 17 20 1005.1 - 0.0
18/10:00am 10.3 3.4 6.3 76 1.9 NNW 32 44 17 24 1004.7 - 0.0
18/09:33am 9.9 3.4 6.5 79 1.6 NNW 30 50 16 27 1004.8 - 0.0
18/09:30am 9.6 3.2 7.1 84 1.2 N 30 43 16 23 1004.9 - 0.0
18/09:00am 10.1 0.2 6.7 79 1.6 NW 48 56 26 30 1004.0 1003.9 8.2
18/08:41am 10.0 2.6 6.6 79 1.6 NW 35 44 19 24 1004.6 - 8.2
18/08:30am 9.7 5.4 7.0 83 1.3 NNW 19 26 10 14 1004.4 - 8.2
18/08:18am 9.4 3.1 5.7 78 1.7 NNW 28 33 15 18 1004.3 - 8.2
18/08:00am 9.2 1.3 6.4 83 1.3 WNW 37 41 20 22 1004.3 - 8.0
18/07:30am 9.4 3.0 7.1 85 1.1 NNW 30 39 16 21 1003.9 - 8.0
18/07:00am 8.5 2.0 6.6 88 0.9 NNW 30 44 16 24 1003.9 - 7.8
18/06:30am 9.4 2.7 5.7 78 1.7 N 30 39 16 21 1003.3 - 5.8
18/06:27am 9.8 2.5 4.7 70 2.3 NNW 32 39 17 21 1003.3 - 5.8
18/06:00am 9.8 -0.1 6.4 79 1.6 NW 48 57 26 31 1003.1 1002.9 5.8
18/05:35am 10.0 2.4 5.7 74 2.0 NNW 35 54 19 29 1002.9 - 5.8
18/05:30am 9.2 1.3 6.4 83 1.3 NNW 37 54 20 29 1003.1 - 5.8
18/05:25am 9.0 -0.8 5.5 79 1.6 NNW 46 65 25 35 1002.8 - 5.8
18/05:13am 9.1 -0.4 6.5 84 1.2 NW 46 54 25 29 1003.0 - 5.6
18/05:03am 9.7 2.4 7.2 84 1.2 NNW 35 54 19 29 1002.9 - 5.4
18/05:00am 9.8 2.5 7.3 84 1.2 N 35 52 19 28 1002.9 - 5.4
18/04:31am 10.0 3.1 6.6 79 1.6 NNW 32 50 17 27 1002.7 - 5.4
18/04:30am 10.0 3.0 6.9 81 1.5 NNW 33 50 18 27 1002.8 - 5.4
18/04:00am 9.9 3.8 6.7 80 1.5 NNW 28 37 15 20 1002.7 - 5.4
18/03:30am 9.9 3.4 6.7 80 1.5 NNW 30 39 16 21 1002.9 - 5.2
18/03:00am 10.5 3.3 5.8 72 2.2 NNW 33 44 18 24 1002.8 1002.6 4.4
18/02:30am 10.8 1.1 5.9 72 2.3 NNW 46 57 25 31 1002.6 - 4.4
18/02:00am 10.9 0.3 5.1 67 2.7 NNW 50 61 27 33 1002.5 - 4.4
18/01:30am 10.9 -1.2 6.0 72 2.3 NW 59 69 32 37 1002.3 - 4.4
18/01:09am 11.2 0.6 5.2 66 2.8 NNW 50 69 27 37 1002.1 - 4.4
18/01:00am 11.0 1.6 7.1 77 1.9 NNW 46 59 25 32 1002.4 - 4.4
18/12:32am 10.6 -0.3 7.1 79 1.7 NNW 54 72 29 39 1002.6 - 4.4
18/12:30am 10.7 -1.1 7.4 80 1.6 NNW 59 72 32 39 1002.4 - 4.4
18/12:16am 11.2 -1.3 5.9 70 2.5 NW 61 69 33 37 1002.3 - 4.4
18/12:00am 10.6 2.5 6.8 77 1.8 NNW 39 57 21 31 1002.6 1002.4 4.4
 
Date/Time
EDT
Temp
°C
App
Temp
°C
Dew
Point
°C
Rel
Hum
%
Delta-T
°C
Wind Press
QNH
hPa
Press
MSL
hPa
Rain since
9am
mm
Dir  Spd
km/h
Gust
km/h
Spd
kts
Gust
kts
17/11:30pm 9.9 3.3 7.8 87 1.0 NNW 32 54 17 29 1002.6 - 4.4
17/11:14pm 10.3 4.1 7.8 84 1.2 NNW 30 48 16 26 1002.9 - 4.0
17/11:00pm 10.2 4.8 8.2 87 1.0 NNW 26 35 14 19 1003.1 - 4.0
17/10:36pm 9.7 1.7 7.4 85 1.1 NNW 39 57 21 31 1002.9 - 4.0
17/10:30pm 9.8 1.6 8.0 88 0.9 NNW 41 57 22 31 1002.8 - 3.8
17/10:24pm 10.2 2.3 8.0 86 1.1 NNW 39 57 21 31 1002.9 - 3.8
17/10:00pm 10.3 3.1 7.6 83 1.3 NNW 35 50 19 27 1002.7 - 3.0
17/09:31pm 10.4 1.8 8.0 85 1.2 NNW 43 61 23 33 1002.0 - 3.0
17/09:30pm 10.5 1.8 7.8 83 1.3 NNW 43 59 23 32 1002.1 - 3.0
17/09:28pm 10.7 2.4 7.8 82 1.4 NNW 41 50 22 27 1002.4 - 3.0
17/09:00pm 12.5 -0.2 7.0 69 2.7 NW 63 74 34 40 1001.2 1001.1 2.8
17/08:41pm 12.4 0.2 7.3 71 2.5 NW 61 67 33 36 1001.4 - 2.8
17/08:33pm 12.1 4.2 7.9 75 2.1 NNW 39 59 21 32 1001.5 - 2.8
17/08:30pm 11.5 4.4 8.1 79 1.7 NNW 35 44 19 24 1001.7 - 2.8
17/08:00pm 11.2 1.3 6.6 73 2.2 NNW 48 59 26 32 1001.4 - 2.8
17/07:30pm 12.7 0.4 7.0 68 2.8 NW 61 70 33 38 1000.9 - 2.6
17/07:00pm 13.1 0.2 6.0 62 3.4 NW 63 70 34 38 1000.5 - 2.6
17/06:30pm 13.2 0.0 6.4 63 3.3 NNW 65 78 35 42 1000.3 - 2.6
17/06:00pm 12.6 0.6 8.0 73 2.3 NW 61 69 33 37 1000.7 1000.6 2.6
17/05:30pm 12.8 2.8 8.0 72 2.4 NNW 50 69 27 37 1000.4 - 2.6
17/05:02pm 12.4 1.3 7.8 73 2.3 NW 56 61 30 33 1000.6 - 2.6

Other Formats:

Comma delimited format used in spreadsheet applications
http://www.bom.gov.au/fwo/IDT60801/IDT60801.94962.axf

JavaScript Object Notation format (JSON) in row-major order
http://www.bom.gov.au/fwo/IDT60801/IDT60801.94962.json